Time;durP1;ratioP1;P1;durP2;ratioP2;P2;SDS_P1;SDS_P2;PMS_P1;PMS_P2;Temp;Humidity;BMP_temperature;BMP_pressure;BME280_temperature;BME280_humidity;BME280_pressure;Samples;Min_cycle;Max_cycle;Signal;HPM_P1;HPM_P2
2021/01/24 00:09:59;;;;;;;8.35;4.28;;;;;;;3.41;100.00;98035.41;20847520;28;20046;-71
2021/01/24 00:20:00;;;;;;;7.32;4.05;;;;;;;3.39;100.00;98033.84;20820863;28;20046;-71
2021/01/24 00:30:04;;;;;;;8.35;4.78;;;;;;;3.51;100.00;98039.97;20831123;28;20103;-71
2021/01/24 00:40:07;;;;;;;7.93;3.67;;;;;;;3.42;100.00;98042.22;20845585;28;20042;-71
2021/01/24 00:50:08;;;;;;;6.50;3.22;;;;;;;3.34;100.00;98059.16;20821481;28;20045;-71
2021/01/24 01:00:10;;;;;;;7.40;3.60;;;;;;;3.21;100.00;98048.75;20816256;28;20041;-72
2021/01/24 01:10:11;;;;;;;5.80;3.13;;;;;;;3.29;100.00;98066.38;20818665;28;20041;-72
2021/01/24 01:20:12;;;;;;;4.72;2.25;;;;;;;3.20;100.00;98085.03;20819505;28;20460;-71
2021/01/24 01:30:13;;;;;;;4.53;1.60;;;;;;;3.12;100.00;98103.59;20817577;28;20045;-71
2021/01/24 01:40:14;;;;;;;2.92;1.13;;;;;;;2.99;100.00;98137.09;20814638;28;20042;-71
2021/01/24 01:50:20;;;;;;;0.88;0.50;;;;;;;2.58;98.28;98167.94;20816710;28;20430;-71
2021/01/24 02:00:22;;;;;;;1.30;0.50;;;;;;;2.46;98.07;98175.56;20815791;28;20057;-71
2021/01/24 02:10:35;;;;;;;1.02;0.60;;;;;;;2.44;97.81;98195.44;20812586;28;20479;-71
2021/01/24 02:21:05;;;;;;;0.52;0.30;;;;;;;2.51;95.51;98223.44;20873336;28;20045;-71
2021/01/24 02:31:06;;;;;;;1.85;0.75;;;;;;;2.54;94.58;98261.97;20815049;28;20096;-71
2021/01/24 02:41:11;;;;;;;2.38;1.23;;;;;;;2.42;92.16;98270.41;20811349;28;20099;-71
2021/01/24 02:51:13;;;;;;;4.43;2.13;;;;;;;2.52;90.77;98297.38;20810148;28;20045;-71
2021/01/24 03:01:15;;;;;;;6.07;2.78;;;;;;;2.49;90.20;98323.34;20813220;28;20497;-72
2021/01/24 03:11:21;;;;;;;8.48;3.90;;;;;;;2.49;87.77;98346.59;20824734;28;20049;-71
2021/01/24 03:21:23;;;;;;;8.05;3.72;;;;;;;2.44;85.55;98356.34;20824923;28;20116;-71
2021/01/24 03:31:24;;;;;;;12.52;4.70;;;;;;;2.33;85.91;98374.19;20825146;28;20045;-71
2021/01/24 03:41:25;;;;;;;8.88;4.65;;;;;;;2.31;85.07;98398.38;20824305;28;20136;-71
2021/01/24 03:51:27;;;;;;;10.02;4.25;;;;;;;2.26;84.90;98413.28;20828998;28;20059;-71
2021/01/24 04:01:29;;;;;;;8.82;3.85;;;;;;;2.10;80.94;98426.16;20821027;28;20045;-71
2021/01/24 04:11:30;;;;;;;6.30;3.30;;;;;;;2.00;81.95;98433.53;20820285;28;20049;-71
2021/01/24 04:21:31;;;;;;;7.63;3.70;;;;;;;1.88;82.90;98446.22;20820289;28;20046;-72
2021/01/24 04:31:32;;;;;;;8.05;3.63;;;;;;;1.73;81.83;98458.97;20871043;28;20519;-71
2021/01/24 04:41:37;;;;;;;7.97;2.75;;;;;;;1.73;81.09;98465.06;20839024;28;20045;-71
2021/01/24 04:51:39;;;;;;;8.13;2.70;;;;;;;1.73;80.98;98484.75;20826070;28;20092;-71
2021/01/24 05:01:42;;;;;;;7.93;3.30;;;;;;;1.64;79.97;98495.53;20820515;28;20460;-71
2021/01/24 05:11:51;;;;;;;8.02;3.25;;;;;;;1.48;77.50;98516.94;20815421;28;20060;-71
2021/01/24 05:21:52;;;;;;;;;;;;;;;1.26;78.15;98523.13;20849733;28;20049;-72
2021/01/24 05:31:54;;;;;;;6.22;2.70;;;;;;;1.35;77.34;98545.06;20816967;28;19931;-71
2021/01/24 05:41:58;;;;;;;7.57;2.83;;;;;;;1.40;76.38;98553.41;20812941;28;20056;-71
2021/01/24 05:52:07;;;;;;;10.35;4.57;;;;;;;1.27;78.19;98554.88;20813210;28;20098;-71
2021/01/24 06:02:08;;;;;;;10.43;4.63;;;;;;;1.15;80.12;98581.22;20823920;28;20485;-71
2021/01/24 06:12:10;;;;;;;10.18;4.75;;;;;;;1.25;81.08;98597.94;20821644;28;20614;-71
2021/01/24 06:22:14;;;;;;;11.20;4.80;;;;;;;1.32;80.63;98604.47;20826820;28;20042;-71
2021/01/24 06:32:26;;;;;;;13.70;4.57;;;;;;;1.46;79.00;98622.72;20843282;28;20045;-71
2021/01/24 06:42:42;;;;;;;12.00;5.05;;;;;;;1.47;80.92;98639.03;20837852;28;20480;-70
2021/01/24 06:53:01;;;;;;;13.15;5.05;;;;;;;1.41;80.62;98642.72;20861171;28;20045;-71
2021/01/24 07:03:16;;;;;;;10.05;5.07;;;;;;;1.40;79.81;98633.31;20853833;28;20500;-71
2021/01/24 07:13:26;;;;;;;9.67;4.00;;;;;;;1.48;78.38;98666.47;20842127;28;20099;-71
2021/01/24 07:23:28;;;;;;;8.27;3.80;;;;;;;1.46;78.85;98669.13;20827765;28;20103;-71
2021/01/24 07:33:30;;;;;;;8.55;3.88;;;;;;;1.67;77.76;98693.94;20859175;28;20049;-70
2021/01/24 07:43:32;;;;;;;8.18;3.67;;;;;;;1.67;77.32;98695.69;20871178;28;20045;-70
2021/01/24 07:53:34;;;;;;;9.50;4.00;;;;;;;1.79;77.67;98700.25;20848636;28;20049;-70
2021/01/24 08:03:37;;;;;;;10.23;3.72;;;;;;;1.75;78.17;98726.25;20866471;28;20049;-70
2021/01/24 08:13:41;;;;;;;11.60;5.18;;;;;;;1.76;79.31;98738.25;20855125;28;20045;-70
2021/01/24 08:23:48;;;;;;;10.07;4.43;;;;;;;1.69;82.10;98738.53;20825453;28;20042;-70
2021/01/24 08:33:54;;;;;;;10.23;4.78;;;;;;;1.63;81.44;98753.44;20858028;28;20069;-70
2021/01/24 08:44:21;;;;;;;9.75;4.85;;;;;;;1.69;82.20;98771.22;20839736;28;20049;-70
2021/01/24 08:54:28;;;;;;;9.27;4.38;;;;;;;1.78;80.87;98772.56;20838321;28;20511;-70
2021/01/24 09:04:34;;;;;;;9.75;4.82;;;;;;;1.78;79.55;98800.94;20829994;28;20045;-72
2021/01/24 09:14:35;;;;;;;9.65;4.78;;;;;;;1.89;79.75;98816.75;20871031;28;20045;-70
2021/01/24 09:24:37;;;;;;;12.82;5.47;;;;;;;2.06;78.57;98816.84;20896393;28;20086;-71
2021/01/24 09:34:38;;;;;;;8.98;4.03;;;;;;;2.23;78.76;98828.97;20896932;28;20049;-70
2021/01/24 09:44:39;;;;;;;8.52;3.60;;;;;;;2.33;75.69;98854.31;20820087;28;20049;-70
2021/01/24 09:54:39;;;;;;;9.13;3.50;;;;;;;2.35;74.63;98864.53;20820175;28;20052;-70
2021/01/24 10:04:40;;;;;;;8.27;3.33;;;;;;;2.38;74.48;98895.41;20817877;28;20045;-70
2021/01/24 10:14:41;;;;;;;7.45;3.03;;;;;;;2.41;74.52;98903.00;20849119;28;20086;-70
2021/01/24 10:24:42;;;;;;;11.77;4.43;;;;;;;2.44;73.89;98908.84;20832889;28;20059;-70
2021/01/24 10:34:43;;;;;;;8.52;3.35;;;;;;;2.45;73.14;98923.44;20865085;28;20045;-71
2021/01/24 10:44:44;;;;;;;7.05;2.90;;;;;;;2.46;70.11;98932.88;20878070;28;20047;-70
2021/01/24 10:54:45;;;;;;;6.03;2.42;;;;;;;2.48;70.30;98943.16;20817134;28;20485;-70
2021/01/24 11:04:46;;;;;;;6.40;2.65;;;;;;;2.56;70.00;98944.47;20815262;28;20142;-69
2021/01/24 11:14:47;;;;;;;5.90;2.20;;;;;;;2.70;69.06;98955.91;20826959;28;20041;-70
2021/01/24 11:24:49;;;;;;;6.47;2.53;;;;;;;2.82;68.23;98958.78;20902835;28;20048;-70
2021/01/24 11:34:50;;;;;;;8.82;2.92;;;;;;;3.09;67.83;98959.25;20856194;28;20107;-69
2021/01/24 11:44:51;;;;;;;5.63;2.53;;;;;;;3.18;66.01;98953.66;20855779;28;20413;-69
2021/01/24 11:54:52;;;;;;;6.65;2.15;;;;;;;3.20;65.63;98962.16;20828669;28;20046;-69
2021/01/24 12:04:53;;;;;;;4.22;2.22;;;;;;;3.30;65.31;98962.56;20826006;28;20049;-71
2021/01/24 12:14:54;;;;;;;7.38;1.90;;;;;;;3.05;65.75;98962.88;20842487;28;20037;-72
2021/01/24 12:24:55;;;;;;;7.05;2.33;;;;;;;3.09;65.06;98958.41;20850456;28;20053;-71
2021/01/24 12:34:56;;;;;;;6.47;2.60;;;;;;;3.08;65.34;98967.91;20836447;28;20409;-71
2021/01/24 12:44:57;;;;;;;5.88;2.40;;;;;;;3.12;64.68;98964.28;20846202;28;20045;-70
2021/01/24 12:54:58;;;;;;;5.50;2.40;;;;;;;3.24;64.90;98970.63;20829242;28;20049;-70
2021/01/24 13:04:59;;;;;;;6.15;2.38;;;;;;;3.29;65.36;98979.00;20869021;28;20041;-70
2021/01/24 13:15:01;;;;;;;10.90;3.67;;;;;;;3.31;62.42;98972.81;20863495;28;20463;-70
2021/01/24 13:25:02;;;;;;;6.57;2.80;;;;;;;3.19;65.17;98967.41;20830848;28;20132;-70
2021/01/24 13:35:05;;;;;;;5.30;2.22;;;;;;;3.14;63.60;98977.97;20864941;28;20033;-71
2021/01/24 13:45:07;;;;;;;7.50;2.90;;;;;;;3.07;63.86;98986.91;20854525;28;20124;-71
2021/01/24 13:55:09;;;;;;;4.75;2.40;;;;;;;3.73;60.64;99007.88;20819752;28;20046;-71
2021/01/24 14:05:11;;;;;;;5.22;1.90;;;;;;;3.47;59.62;99008.28;20824968;28;20129;-72
2021/01/24 14:15:12;;;;;;;6.60;1.90;;;;;;;3.30;59.44;99020.28;20824088;28;20099;-71
2021/01/24 14:25:14;;;;;;;5.25;1.80;;;;;;;3.18;61.89;99012.25;20819067;28;20045;-72
2021/01/24 14:35:16;;;;;;;7.95;1.55;;;;;;;3.13;62.94;98991.81;20890736;28;20049;-72
2021/01/24 14:45:17;;;;;;;3.10;1.27;;;;;;;2.78;64.10;98983.09;20846194;28;20041;-72
2021/01/24 14:55:18;;;;;;;6.22;2.45;;;;;;;2.71;66.52;98993.75;20819798;28;20043;-71
2021/01/24 15:05:19;;;;;;;7.68;2.58;;;;;;;2.76;65.75;98991.78;20829993;28;20611;-71
2021/01/24 15:15:20;;;;;;;4.32;1.60;;;;;;;2.66;67.08;98985.38;20831260;28;20075;-72
2021/01/24 15:25:21;;;;;;;2.92;1.42;;;;;;;2.65;67.38;98973.34;20830569;28;20053;-72
2021/01/24 15:35:22;;;;;;;6.22;2.50;;;;;;;2.60;69.76;98981.31;20827308;28;20133;-71
2021/01/24 15:45:23;;;;;;;7.00;2.58;;;;;;;2.43;70.02;98984.66;20828558;28;20390;-72
2021/01/24 15:55:24;;;;;;;7.95;3.38;;;;;;;2.22;71.54;98983.00;20827988;28;21428;-72
2021/01/24 16:05:25;;;;;;;7.75;3.90;;;;;;;1.91;74.86;98980.06;20855870;28;20140;-72
2021/01/24 16:15:26;;;;;;;16.40;6.40;;;;;;;1.82;74.19;98978.69;20830547;28;20046;-72
2021/01/24 16:25:28;;;;;;;10.10;4.20;;;;;;;1.76;75.25;98975.53;20825925;28;20042;-71
2021/01/24 16:35:29;;;;;;;9.57;3.83;;;;;;;1.63;73.40;98960.56;20825315;28;20045;-72
2021/01/24 16:45:43;;;;;;;14.53;6.77;;;;;;;1.43;74.52;98957.09;20824691;28;20045;-72
2021/01/24 16:55:44;;;;;;;14.93;6.88;;;;;;;1.23;76.37;98937.28;20829838;28;20053;-71
2021/01/24 17:05:47;;;;;;;19.10;10.10;;;;;;;0.95;76.25;98931.56;20887199;28;20128;-71
2021/01/24 17:15:48;;;;;;;15.63;8.25;;;;;;;0.79;78.80;98939.88;20823963;28;20417;-71
2021/01/24 17:25:49;;;;;;;18.33;7.20;;;;;;;0.75;78.92;98927.19;20834599;28;20051;-70
2021/01/24 17:35:50;;;;;;;13.63;6.53;;;;;;;0.52;80.47;98924.63;20839068;28;20041;-71
2021/01/24 17:45:51;;;;;;;15.23;8.65;;;;;;;0.35;80.26;98917.53;20819730;28;20045;-72
2021/01/24 17:55:52;;;;;;;19.75;11.02;;;;;;;0.07;81.63;98902.25;20850074;28;20037;-71
2021/01/24 18:05:53;;;;;;;14.02;7.32;;;;;;;0.04;82.42;98901.53;20897213;28;20095;-71
2021/01/24 18:15:54;;;;;;;21.75;10.52;;;;;;;0.07;84.17;98875.69;20860312;28;20416;-71
2021/01/24 18:25:56;;;;;;;34.35;17.23;;;;;;;0.09;86.41;98895.34;20817935;28;20140;-71
2021/01/24 18:35:57;;;;;;;29.33;13.02;;;;;;;0.21;83.44;98899.16;20833166;28;20045;-72
2021/01/24 18:45:58;;;;;;;27.35;13.68;;;;;;;-0.01;84.34;98907.69;20833835;28;20072;-72
2021/01/24 18:55:59;;;;;;;24.25;12.75;;;;;;;-0.19;85.11;98910.03;20837160;28;20045;-71
2021/01/24 19:06:04;;;;;;;16.73;8.30;;;;;;;-0.35;85.86;98920.00;20830864;28;20047;-72
2021/01/24 19:16:06;;;;;;;17.33;9.25;;;;;;;-0.41;86.90;98909.97;20833927;28;20137;-71
2021/01/24 19:26:18;;;;;;;22.73;9.85;;;;;;;-0.38;86.38;98911.56;20868454;28;20048;-72
2021/01/24 19:36:19;;;;;;;16.20;7.38;;;;;;;-0.45;85.89;98905.78;20834044;28;20109;-70
2021/01/24 19:46:20;;;;;;;15.18;7.13;;;;;;;-0.59;88.31;98895.16;20831897;28;20054;-71
2021/01/24 19:56:35;;;;;;;24.70;10.35;;;;;;;-0.57;88.44;98872.81;20818702;28;20072;-71
2021/01/24 20:06:37;;;;;;;26.70;13.57;;;;;;;-0.62;90.19;98874.69;20832153;28;20490;-72
2021/01/24 20:16:39;;;;;;;31.80;18.85;;;;;;;-0.54;89.21;98863.25;20839601;28;20042;-71
2021/01/24 20:26:40;;;;;;;38.13;18.73;;;;;;;-0.49;89.84;98850.25;20845487;28;20041;-71
2021/01/24 20:36:42;;;;;;;39.75;22.33;;;;;;;-0.37;89.29;98838.72;20838400;28;20489;-71
2021/01/24 20:46:42;;;;;;;35.17;19.02;;;;;;;-0.18;89.68;98838.00;20833672;28;20045;-70
2021/01/24 20:56:44;;;;;;;23.13;14.18;;;;;;;-0.06;89.01;98836.75;20825962;28;20563;-72
2021/01/24 21:06:45;;;;;;;25.38;11.68;;;;;;;-0.05;89.05;98836.66;20852482;28;20033;-70
2021/01/24 21:16:46;;;;;;;27.00;12.50;;;;;;;0.00;89.75;98823.66;20854376;28;20054;-71
2021/01/24 21:26:47;;;;;;;21.55;11.75;;;;;;;0.03;89.79;98808.09;20820010;28;20107;-71
2021/01/24 21:36:48;;;;;;;19.83;10.45;;;;;;;0.18;88.84;98809.25;20818315;28;20041;-71
2021/01/24 21:46:49;;;;;;;24.05;11.93;;;;;;;0.31;86.62;98785.56;20877999;28;20480;-71
2021/01/24 21:56:51;;;;;;;36.97;16.23;;;;;;;0.41;83.65;98763.72;20882179;28;20160;-71
2021/01/24 22:06:52;;;;;;;42.33;18.52;;;;;;;0.38;86.92;98763.84;20869331;28;20175;-72
2021/01/24 22:16:53;;;;;;;31.85;13.95;;;;;;;0.30;87.88;98771.06;20863570;28;20044;-72
2021/01/24 22:26:54;;;;;;;14.57;7.18;;;;;;;0.39;86.12;98775.84;20858243;28;20456;-71
2021/01/24 22:36:55;;;;;;;26.75;12.90;;;;;;;0.49;85.94;98791.75;20859516;28;20051;-73
2021/01/24 22:46:56;;;;;;;23.30;11.95;;;;;;;0.38;88.53;98765.59;20858477;28;20041;-73
2021/01/24 22:56:57;;;;;;;18.92;9.13;;;;;;;0.24;88.82;98749.84;20860937;28;20059;-72
2021/01/24 23:06:58;;;;;;;18.50;10.55;;;;;;;0.37;90.09;98738.19;20895485;28;20497;-71
2021/01/24 23:17:03;;;;;;;19.00;10.05;;;;;;;0.51;91.04;98720.44;20837010;28;20502;-70
2021/01/24 23:27:06;;;;;;;14.80;7.60;;;;;;;0.56;92.46;98715.94;20879908;28;20040;-70
2021/01/24 23:37:07;;;;;;;14.63;6.15;;;;;;;0.60;93.63;98702.06;20896512;28;20587;-70
2021/01/24 23:47:08;;;;;;;11.02;5.68;;;;;;;0.58;94.75;98696.13;20907255;28;20455;-70
2021/01/24 23:57:09;;;;;;;13.02;5.53;;;;;;;0.58;94.04;98691.00;20904682;28;20059;-71
